createdAt,value
2018-01-23T00:00:38.859Z,87.10
2018-01-23T00:01:38.854Z,87.01
2018-01-23T00:02:38.852Z,86.43
2018-01-23T00:03:38.845Z,86.63
2018-01-23T00:04:38.842Z,86.63
2018-01-23T00:05:38.849Z,86.24
2018-01-23T00:06:38.831Z,86.24
2018-01-23T00:07:38.827Z,85.96
2018-01-23T00:08:38.823Z,86.24
2018-01-23T00:09:38.820Z,86.63
2018-01-23T00:10:38.813Z,86.43
2018-01-23T00:11:38.808Z,86.34
2018-01-23T00:12:38.805Z,86.05
2018-01-23T00:13:38.800Z,86.72
2018-01-23T00:14:38.798Z,86.05
2018-01-23T00:15:38.789Z,86.15
2018-01-23T00:16:38.786Z,86.43
2018-01-23T00:17:38.780Z,86.72
2018-01-23T00:18:38.776Z,86.43
2018-01-23T00:19:38.770Z,86.24
2018-01-23T00:20:38.772Z,86.34
2018-01-23T00:21:38.762Z,86.34
2018-01-23T00:22:38.757Z,86.43
2018-01-23T00:23:38.756Z,86.53
2018-01-23T00:24:38.749Z,86.24
2018-01-23T00:25:38.867Z,86.43
2018-01-23T00:26:38.742Z,86.53
2018-01-23T00:27:38.734Z,86.24
2018-01-23T00:28:38.730Z,86.91
2018-01-23T00:29:38.723Z,86.53
2018-01-23T00:30:38.718Z,86.43
2018-01-23T00:31:38.714Z,86.82
2018-01-23T00:32:38.711Z,86.43
2018-01-23T00:33:38.705Z,87.10
2018-01-23T00:34:38.703Z,86.91
2018-01-23T00:35:38.698Z,87.10
2018-01-23T00:36:38.694Z,86.91
2018-01-23T00:37:38.685Z,87.10
2018-01-23T00:38:38.681Z,86.91
2018-01-23T00:39:38.680Z,86.53
2018-01-23T00:40:38.675Z,86.82
2018-01-23T00:41:38.673Z,86.34
2018-01-23T00:42:38.665Z,86.05
2018-01-23T00:43:38.657Z,86.15
2018-01-23T00:44:38.654Z,86.43
2018-01-23T00:45:38.663Z,86.43
2018-01-23T00:46:38.644Z,86.43
2018-01-23T00:47:38.640Z,86.43
2018-01-23T00:48:38.636Z,86.15
2018-01-23T00:49:38.632Z,86.15
2018-01-23T00:50:38.628Z,86.15
2018-01-23T00:51:38.623Z,86.34
2018-01-23T00:52:38.618Z,86.24
2018-01-23T00:53:38.613Z,86.15
2018-01-23T00:54:38.610Z,86.43
2018-01-23T00:55:38.605Z,86.24
2018-01-23T00:56:39.279Z,85.68
2018-01-23T00:57:38.595Z,85.49
2018-01-23T00:58:38.592Z,85.58
2018-01-23T00:59:38.588Z,86.43
2018-01-23T01:00:38.587Z,86.24
2018-01-23T01:01:38.577Z,85.58
2018-01-23T01:02:38.573Z,85.68
2018-01-23T01:03:38.568Z,85.91
2018-01-23T01:04:38.567Z,85.81
2018-01-23T01:05:38.559Z,85.72
2018-01-23T01:06:38.556Z,85.68
2018-01-23T01:07:38.555Z,85.58
2018-01-23T01:08:38.555Z,85.91
2018-01-23T01:09:38.542Z,85.91
2018-01-23T01:10:38.552Z,86.19
2018-01-23T01:11:38.589Z,85.68
2018-01-23T01:12:38.536Z,85.72
2018-01-23T01:13:38.526Z,85.72
2018-01-23T01:14:38.550Z,85.72
2018-01-23T01:15:38.522Z,85.43
2018-01-23T01:16:38.541Z,84.91
2018-01-23T01:17:38.506Z,85.05
2018-01-23T01:18:38.512Z,85.15
2018-01-23T01:19:38.502Z,85.01
2018-01-23T01:20:38.494Z,85.39
2018-01-23T01:21:38.489Z,85.68
2018-01-23T01:22:38.486Z,85.91
2018-01-23T01:23:38.752Z,85.53
2018-01-23T01:24:38.509Z,85.86
2018-01-23T01:25:38.467Z,85.72
2018-01-23T01:26:38.470Z,85.62
2018-01-23T01:27:38.468Z,85.34
2018-01-23T01:28:38.460Z,85.05
2018-01-23T01:29:38.456Z,85.72
2018-01-23T01:30:38.466Z,85.24
2018-01-23T01:31:38.447Z,85.34
2018-01-23T01:32:38.449Z,85.34
2018-01-23T01:33:38.438Z,85.68
2018-01-23T01:34:38.434Z,85.72
2018-01-23T01:35:38.430Z,84.86
2018-01-23T01:36:38.426Z,85.01
2018-01-23T01:37:38.421Z,84.95
2018-01-23T01:38:38.417Z,84.86
2018-01-23T01:39:38.414Z,85.43
2018-01-23T01:40:38.410Z,85.43
2018-01-23T01:41:38.403Z,85.24
2018-01-23T01:42:38.401Z,84.86
2018-01-23T01:43:38.396Z,84.48
2018-01-23T01:44:38.392Z,84.29
2018-01-23T01:45:38.387Z,84.95
2018-01-23T01:46:38.383Z,85.24
2018-01-23T01:47:38.378Z,85.20
2018-01-23T01:48:38.375Z,85.05
2018-01-23T01:49:38.369Z,85.20
2018-01-23T01:50:38.365Z,85.49
2018-01-23T01:51:38.367Z,85.81
2018-01-23T01:52:38.362Z,85.24
2018-01-23T01:53:38.354Z,84.39
2018-01-23T01:54:38.351Z,84.67
2018-01-23T01:55:38.345Z,84.86
2018-01-23T01:56:38.341Z,84.95
2018-01-23T01:57:38.338Z,85.15
2018-01-23T01:58:38.331Z,85.05
2018-01-23T01:59:38.328Z,84.91
2018-01-23T02:00:38.322Z,85.11
2018-01-23T02:01:38.318Z,84.95
2018-01-23T02:02:38.315Z,85.05
2018-01-23T02:03:38.310Z,84.48
2018-01-23T02:04:38.306Z,85.43
2018-01-23T02:05:38.301Z,84.39
2018-01-23T02:06:38.299Z,84.29
2018-01-23T02:07:38.293Z,85.05
2018-01-23T02:08:38.288Z,84.39
2018-01-23T02:09:38.302Z,84.77
2018-01-23T02:10:38.279Z,84.95
2018-01-23T02:11:38.276Z,85.05
2018-01-23T02:12:38.276Z,84.58
2018-01-23T02:13:38.266Z,84.67
2018-01-23T02:14:38.264Z,84.67
2018-01-23T02:15:38.258Z,84.48
2018-01-23T02:16:38.255Z,84.82
2018-01-23T02:17:38.257Z,85.01
2018-01-23T02:18:38.249Z,84.72
2018-01-23T02:19:38.240Z,84.72
2018-01-23T02:20:38.237Z,84.86
2018-01-23T02:21:38.231Z,84.82
2018-01-23T02:22:38.228Z,85.30
2018-01-23T02:23:38.224Z,85.49
2018-01-23T02:24:38.219Z,85.58
2018-01-23T02:25:38.214Z,86.05
2018-01-23T02:26:38.217Z,85.49
2018-01-23T02:27:38.207Z,86.05
2018-01-23T02:28:38.494Z,85.58
2018-01-23T02:29:38.199Z,85.86
2018-01-23T02:30:38.191Z,86.15
2018-01-23T02:31:39.472Z,85.58
2018-01-23T02:32:38.436Z,85.86
2018-01-23T02:33:38.167Z,85.58
2018-01-23T02:34:38.174Z,85.68
2018-01-23T02:35:38.170Z,85.77
2018-01-23T02:36:38.165Z,85.86
2018-01-23T02:37:38.159Z,85.49
2018-01-23T02:38:38.156Z,86.05
2018-01-23T02:39:38.151Z,85.86
2018-01-23T02:40:38.184Z,85.49
2018-01-23T02:41:38.140Z,85.39
2018-01-23T02:42:38.138Z,85.58
2018-01-23T02:43:38.135Z,85.58
2018-01-23T02:44:38.132Z,85.77
2018-01-23T02:45:38.123Z,85.39
2018-01-23T02:46:38.119Z,85.68
2018-01-23T02:47:38.116Z,85.49
2018-01-23T02:48:38.110Z,85.68
2018-01-23T02:49:38.106Z,85.58
2018-01-23T02:50:38.103Z,85.68
2018-01-23T02:51:38.104Z,86.15
2018-01-23T02:52:38.093Z,85.96
2018-01-23T02:53:38.089Z,86.82
2018-01-23T02:54:38.083Z,86.24
2018-01-23T02:55:38.086Z,86.15
2018-01-23T02:56:38.081Z,86.43
2018-01-23T02:57:38.075Z,86.24
2018-01-23T02:58:38.066Z,86.91
2018-01-23T02:59:38.871Z,86.53
2018-01-23T03:00:38.058Z,87.10
2018-01-23T03:01:38.051Z,86.53
2018-01-23T03:02:38.819Z,87.19
2018-01-23T03:03:38.032Z,86.72
2018-01-23T03:04:38.030Z,87.38
2018-01-23T03:05:38.033Z,87.19
2018-01-23T03:06:38.028Z,87.10
2018-01-23T03:07:38.024Z,88.05
2018-01-23T03:08:38.038Z,87.76
2018-01-23T03:09:38.014Z,87.57
2018-01-23T03:10:38.012Z,87.76
2018-01-23T03:11:38.008Z,88.15
2018-01-23T03:12:38.001Z,88.34
2018-01-23T03:13:37.996Z,88.34
2018-01-23T03:14:37.991Z,88.15
2018-01-23T03:15:37.986Z,87.86
2018-01-23T03:16:38.004Z,87.86
2018-01-23T03:17:37.982Z,87.76
2018-01-23T03:18:37.973Z,87.76
2018-01-23T03:19:37.970Z,87.67
2018-01-23T03:20:37.965Z,88.15
2018-01-23T03:21:37.959Z,88.24
2018-01-23T03:22:38.212Z,88.53
2018-01-23T03:23:37.950Z,88.71
2018-01-23T03:24:37.951Z,88.71
2018-01-23T03:25:37.940Z,88.71
2018-01-23T03:26:37.934Z,88.81
2018-01-23T03:27:37.931Z,89.00
2018-01-23T03:28:37.926Z,88.71
2018-01-23T03:29:37.920Z,88.24
2018-01-23T03:30:37.917Z,88.05
2018-01-23T03:31:37.914Z,88.24
2018-01-23T03:32:37.907Z,88.53
2018-01-23T03:33:37.903Z,88.62
2018-01-23T03:34:37.899Z,88.71
2018-01-23T03:35:37.893Z,88.34
2018-01-23T03:36:37.889Z,88.81
2018-01-23T03:37:37.884Z,88.53
2018-01-23T03:38:37.880Z,88.34
2018-01-23T03:39:37.874Z,88.53
2018-01-23T03:40:37.871Z,88.81
2018-01-23T03:41:37.864Z,88.81
2018-01-23T03:42:37.863Z,88.71
2018-01-23T03:43:37.858Z,88.53
2018-01-23T03:44:37.850Z,88.62
2018-01-23T03:45:37.847Z,88.34
2018-01-23T03:46:37.845Z,87.86
2018-01-23T03:47:37.839Z,88.24
2018-01-23T03:48:37.834Z,88.15
2018-01-23T03:49:37.832Z,88.53
2018-01-23T03:50:37.824Z,88.90
2018-01-23T03:51:37.819Z,88.71
2018-01-23T03:52:37.814Z,89.19
2018-01-23T03:53:37.810Z,88.81
2018-01-23T03:54:37.807Z,89.09
2018-01-23T03:55:37.804Z,89.19
2018-01-23T03:56:37.819Z,88.90
2018-01-23T03:57:37.781Z,89.57
2018-01-23T03:58:37.787Z,88.90
2018-01-23T03:59:37.784Z,88.81
2018-01-23T04:00:37.779Z,89.09
2018-01-23T04:01:37.774Z,89.28
2018-01-23T04:02:37.772Z,88.62
2018-01-23T04:03:37.767Z,88.71
2018-01-23T04:04:37.762Z,88.71
2018-01-23T04:05:37.756Z,88.90
2018-01-23T04:06:37.752Z,89.19
2018-01-23T04:07:37.747Z,89.47
2018-01-23T04:08:37.743Z,89.00
2018-01-23T04:09:37.739Z,88.90
2018-01-23T04:10:37.735Z,89.19
2018-01-23T04:11:37.730Z,89.09
2018-01-23T04:12:37.726Z,89.09
2018-01-23T04:13:37.720Z,89.09
2018-01-23T04:14:37.716Z,89.38
2018-01-23T04:15:37.711Z,89.09
2018-01-23T04:16:37.709Z,89.28
2018-01-23T04:17:37.702Z,89.00
2018-01-23T04:18:37.698Z,89.00
2018-01-23T04:19:37.693Z,89.38
2018-01-23T04:20:37.689Z,89.57
2018-01-23T04:21:37.687Z,89.19
2018-01-23T04:22:37.688Z,89.57
2018-01-23T04:23:37.678Z,88.71
2018-01-23T04:24:37.672Z,89.28
2018-01-23T04:25:37.670Z,89.19
2018-01-23T04:26:37.662Z,89.00
2018-01-23T04:27:37.661Z,89.28
2018-01-23T04:28:37.655Z,89.28
2018-01-23T04:29:37.649Z,89.00
2018-01-23T04:30:37.644Z,89.28
2018-01-23T04:31:38.089Z,89.38
2018-01-23T04:32:37.637Z,89.19
2018-01-23T04:33:37.630Z,89.86
2018-01-23T04:34:37.626Z,89.57
2018-01-23T04:35:37.633Z,89.67
2018-01-23T04:36:37.618Z,89.67
2018-01-23T04:37:37.612Z,89.86
2018-01-23T04:38:37.610Z,89.86
2018-01-23T04:39:37.604Z,89.67
2018-01-23T04:40:37.599Z,89.76
2018-01-23T04:41:37.604Z,89.67
2018-01-23T04:42:37.593Z,89.86
2018-01-23T04:43:37.588Z,89.67
2018-01-23T04:44:37.581Z,89.67
2018-01-23T04:45:37.577Z,89.47
2018-01-23T04:46:37.576Z,89.67
2018-01-23T04:47:37.574Z,89.47
2018-01-23T04:48:37.564Z,89.09
2018-01-23T04:49:37.558Z,89.57
2018-01-23T04:50:37.557Z,88.90
2018-01-23T04:51:37.548Z,89.19
2018-01-23T04:52:37.545Z,89.00
2018-01-23T04:53:37.539Z,89.28
2018-01-23T04:54:37.538Z,89.19
2018-01-23T04:55:37.604Z,88.81
2018-01-23T04:56:37.527Z,88.81
2018-01-23T04:57:37.522Z,88.71
2018-01-23T04:58:37.517Z,88.71
2018-01-23T04:59:37.516Z,88.90
2018-01-23T05:00:37.515Z,88.71
2018-01-23T05:01:37.504Z,89.00
2018-01-23T05:02:38.493Z,89.28
2018-01-23T05:03:37.499Z,88.81
2018-01-23T05:04:37.492Z,88.90
2018-01-23T05:05:37.486Z,88.81
2018-01-23T05:06:37.482Z,88.81
2018-01-23T05:07:37.477Z,88.81
2018-01-23T05:08:37.484Z,88.62
2018-01-23T05:09:37.474Z,88.71
2018-01-23T05:10:37.463Z,88.43
2018-01-23T05:11:37.457Z,88.43
2018-01-23T05:12:37.456Z,88.05
2018-01-23T05:13:37.449Z,88.34
2018-01-23T05:14:37.448Z,88.15
2018-01-23T05:15:37.441Z,88.34
2018-01-23T05:16:37.438Z,88.05
2018-01-23T05:17:37.434Z,88.24
2018-01-23T05:18:37.426Z,88.05
2018-01-23T05:19:37.422Z,88.05
2018-01-23T05:20:37.418Z,88.24
2018-01-23T05:21:37.418Z,88.81
2018-01-23T05:22:37.407Z,88.34
2018-01-23T05:23:37.404Z,88.53
2018-01-23T05:24:37.402Z,88.15
2018-01-23T05:25:37.392Z,88.34
2018-01-23T05:26:37.390Z,88.71
2018-01-23T05:27:37.384Z,88.43
2018-01-23T05:28:37.381Z,89.38
2018-01-23T05:29:37.374Z,89.19
2018-01-23T05:30:37.370Z,89.76
2018-01-23T05:31:37.365Z,89.86
2018-01-23T05:32:37.363Z,90.42
2018-01-23T05:33:37.358Z,91.66
2018-01-23T05:34:37.352Z,92.04
2018-01-23T05:35:37.346Z,92.23
2018-01-23T05:36:37.341Z,92.90
2018-01-23T05:37:39.195Z,92.71
2018-01-23T05:38:37.817Z,92.32
2018-01-23T05:39:38.328Z,92.80
2018-01-23T05:40:37.400Z,92.51
2018-01-23T05:41:37.320Z,92.51
2018-01-23T05:42:37.313Z,92.23
2018-01-23T05:43:37.308Z,92.99
2018-01-23T05:44:37.302Z,93.84
2018-01-23T05:45:37.296Z,94.70
2018-01-23T05:46:37.306Z,93.46
2018-01-23T05:47:37.288Z,93.65
2018-01-23T05:48:37.284Z,94.70
2018-01-23T05:49:37.276Z,92.71
2018-01-23T05:50:37.275Z,93.18
2018-01-23T05:51:37.270Z,93.27
2018-01-23T05:52:37.266Z,93.75
2018-01-23T05:53:37.256Z,93.65
2018-01-23T05:54:37.263Z,92.90
2018-01-23T05:55:37.248Z,93.27
2018-01-23T05:56:37.246Z,93.84
2018-01-23T05:57:37.236Z,93.65
2018-01-23T05:58:37.238Z,93.84
2018-01-23T05:59:37.230Z,93.56
2018-01-23T06:00:37.226Z,93.84
2018-01-23T06:01:37.219Z,93.65
2018-01-23T06:02:37.212Z,92.51
2018-01-23T06:03:37.287Z,93.18
2018-01-23T06:04:37.205Z,93.18
2018-01-23T06:05:37.198Z,92.32
2018-01-23T06:06:37.211Z,92.51
2018-01-23T06:07:37.187Z,92.32
2018-01-23T06:08:37.192Z,92.42
2018-01-23T06:09:37.852Z,92.71
2018-01-23T06:10:37.162Z,92.13
2018-01-23T06:11:37.164Z,92.90
2018-01-23T06:12:37.164Z,92.75
2018-01-23T06:13:37.156Z,92.99
2018-01-23T06:14:37.156Z,92.47
2018-01-23T06:15:37.163Z,92.80
2018-01-23T06:16:37.248Z,92.75
2018-01-23T06:17:37.145Z,92.90
2018-01-23T06:18:37.131Z,92.90
2018-01-23T06:19:37.126Z,93.18
2018-01-23T06:20:37.123Z,93.65
2018-01-23T06:21:37.116Z,92.71
2018-01-23T06:22:37.115Z,92.71
2018-01-23T06:23:37.115Z,92.51
2018-01-23T06:24:37.101Z,92.23
2018-01-23T06:25:37.098Z,93.27
2018-01-23T06:26:37.115Z,92.42
2018-01-23T06:27:37.091Z,92.32
2018-01-23T06:28:37.081Z,92.71
2018-01-23T06:29:37.089Z,93.56
2018-01-23T06:30:37.237Z,94.32
2018-01-23T06:31:37.066Z,94.79
2018-01-23T06:32:37.061Z,94.03
2018-01-23T06:33:37.056Z,93.84
2018-01-23T06:34:38.038Z,94.79
2018-01-23T06:35:37.134Z,93.75
2018-01-23T06:36:37.041Z,94.51
2018-01-23T06:37:37.036Z,93.84
2018-01-23T06:38:37.030Z,93.75
2018-01-23T06:39:37.026Z,93.08
2018-01-23T06:40:37.022Z,92.80
2018-01-23T06:41:37.016Z,92.99
2018-01-23T06:42:37.011Z,92.04
2018-01-23T06:43:37.007Z,91.85
2018-01-23T06:44:37.004Z,91.28
2018-01-23T06:45:36.999Z,91.47
2018-01-23T06:46:36.993Z,91.75
2018-01-23T06:47:36.990Z,92.13
2018-01-23T06:48:36.983Z,92.04
2018-01-23T06:49:36.977Z,92.51
2018-01-23T06:50:36.972Z,92.71
2018-01-23T06:51:36.970Z,92.23
2018-01-23T06:52:36.975Z,92.13
2018-01-23T06:53:36.966Z,93.08
2018-01-23T06:54:36.955Z,92.32
2018-01-23T06:55:36.950Z,92.13
2018-01-23T06:56:36.944Z,91.75
2018-01-23T06:57:36.952Z,91.75
2018-01-23T06:58:36.937Z,91.56
2018-01-23T06:59:36.930Z,91.28
2018-01-23T07:00:36.926Z,91.56
2018-01-23T07:01:36.921Z,90.99
2018-01-23T07:02:36.918Z,90.23
2018-01-23T07:03:36.921Z,90.33
2018-01-23T07:04:36.906Z,90.33
2018-01-23T07:05:36.902Z,89.57
2018-01-23T07:06:36.896Z,90.52
2018-01-23T07:07:36.908Z,90.14
2018-01-23T07:08:36.887Z,90.42
2018-01-23T07:09:36.883Z,89.52
2018-01-23T07:10:36.881Z,90.42
2018-01-23T07:11:36.874Z,89.67
2018-01-23T07:12:36.872Z,89.33
2018-01-23T07:13:36.867Z,89.09
2018-01-23T07:14:36.866Z,89.23
2018-01-23T07:15:36.858Z,89.80
2018-01-23T07:16:36.852Z,90.09
2018-01-23T07:17:36.848Z,89.38
2018-01-23T07:18:36.855Z,89.95
2018-01-23T07:19:36.854Z,89.47
2018-01-23T07:20:37.067Z,89.42
2018-01-23T07:21:36.869Z,89.61
2018-01-23T07:22:36.821Z,89.61
2018-01-23T07:23:36.966Z,90.09
2018-01-23T07:24:36.805Z,89.80
2018-01-23T07:25:36.810Z,89.95
2018-01-23T07:26:36.808Z,89.42
2018-01-23T07:27:36.801Z,89.04
2018-01-23T07:28:36.955Z,89.14
2018-01-23T07:29:36.784Z,88.76
2018-01-23T07:30:36.778Z,88.67
2018-01-23T07:31:36.784Z,88.57
2018-01-23T07:32:36.788Z,88.81
2018-01-23T07:33:36.786Z,88.95
2018-01-23T07:34:36.779Z,88.53
2018-01-23T07:35:36.775Z,88.71
2018-01-23T07:36:36.763Z,88.81
2018-01-23T07:37:36.757Z,88.71
2018-01-23T07:38:36.757Z,89.00
2018-01-23T07:39:36.753Z,88.05
2018-01-23T07:40:36.818Z,88.34
2018-01-23T07:41:36.740Z,88.05
2018-01-23T07:42:36.737Z,88.34
2018-01-23T07:43:36.731Z,88.71
2018-01-23T07:44:36.725Z,88.43
2018-01-23T07:45:36.725Z,88.53
2018-01-23T07:46:36.718Z,88.24
2018-01-23T07:47:36.732Z,88.71
2018-01-23T07:48:36.708Z,88.81
2018-01-23T07:49:36.704Z,89.00
2018-01-23T07:50:36.710Z,88.81
2018-01-23T07:51:36.726Z,88.47
2018-01-23T07:52:36.680Z,88.34
2018-01-23T07:53:36.765Z,88.19
2018-01-23T07:54:36.682Z,88.38
2018-01-23T07:55:36.686Z,88.47
2018-01-23T07:56:36.677Z,89.04
2018-01-23T07:57:36.668Z,88.00
2018-01-23T07:58:36.674Z,87.57
2018-01-23T07:59:36.660Z,87.62
2018-01-23T08:00:36.658Z,87.62
2018-01-23T08:01:36.648Z,88.00
2018-01-23T08:02:36.646Z,88.38
2018-01-23T08:03:36.644Z,87.90
2018-01-23T08:04:36.675Z,88.09
2018-01-23T08:05:36.637Z,88.28
2018-01-23T08:06:36.890Z,87.81
2018-01-23T08:07:36.622Z,88.00
2018-01-23T08:08:36.625Z,88.28
2018-01-23T08:09:36.650Z,87.43
2018-01-23T08:10:36.645Z,87.43
2018-01-23T08:11:36.612Z,87.24
2018-01-23T08:12:36.673Z,86.47
2018-01-23T08:13:36.616Z,86.38
2018-01-23T08:14:36.594Z,87.05
2018-01-23T08:15:36.590Z,86.38
2018-01-23T08:16:36.605Z,86.95
2018-01-23T08:17:36.575Z,86.86
2018-01-23T08:18:36.571Z,86.47
2018-01-23T08:19:36.580Z,86.00
2018-01-23T08:20:36.571Z,85.91
2018-01-23T08:21:36.579Z,85.72
2018-01-23T08:22:36.581Z,85.62
2018-01-23T08:23:36.556Z,85.62
2018-01-23T08:24:36.580Z,85.62
2018-01-23T08:25:36.537Z,85.81
2018-01-23T08:26:36.534Z,85.91
2018-01-23T08:27:36.546Z,85.91
2018-01-23T08:28:36.536Z,85.62
2018-01-23T08:29:36.531Z,85.72
2018-01-23T08:30:36.548Z,85.53
2018-01-23T08:31:36.581Z,85.62
2018-01-23T08:32:36.524Z,85.43
2018-01-23T08:33:36.518Z,84.95
2018-01-23T08:34:36.516Z,84.86
2018-01-23T08:35:36.586Z,85.24
2018-01-23T08:36:36.503Z,84.86
2018-01-23T08:37:37.266Z,85.05
2018-01-23T08:38:36.496Z,85.43
2018-01-23T08:39:36.491Z,84.95
2018-01-23T08:40:36.507Z,84.86
2018-01-23T08:41:36.489Z,85.15
2018-01-23T08:42:36.713Z,85.00
2018-01-23T08:43:36.562Z,85.10
2018-01-23T08:44:36.819Z,85.38
2018-01-23T08:45:36.482Z,84.81
2018-01-23T08:46:36.534Z,84.72
2018-01-23T08:47:36.530Z,84.72
2018-01-23T08:48:36.608Z,84.91
2018-01-23T08:49:36.649Z,85.10
2018-01-23T08:50:36.546Z,85.00
2018-01-23T08:51:36.466Z,84.72
2018-01-23T08:52:36.444Z,84.43
2018-01-23T08:53:37.478Z,84.72
2018-01-23T08:54:37.331Z,85.19
2018-01-23T08:55:36.418Z,85.00
2018-01-23T08:56:37.443Z,84.14
2018-01-23T08:57:36.410Z,84.14
2018-01-23T08:58:36.408Z,84.14
2018-01-23T08:59:36.413Z,84.43
2018-01-23T09:00:36.414Z,84.14
2018-01-23T09:01:36.414Z,83.76
2018-01-23T09:02:36.405Z,84.05
2018-01-23T09:03:36.411Z,83.76
2018-01-23T09:04:36.395Z,83.58
2018-01-23T09:05:36.400Z,83.39
2018-01-23T09:06:36.393Z,83.67
2018-01-23T09:07:36.384Z,83.00
2018-01-23T09:08:36.382Z,83.29
2018-01-23T09:09:36.381Z,83.39
2018-01-23T09:10:36.377Z,82.62
2018-01-23T09:11:36.370Z,83.10
2018-01-23T09:12:36.366Z,82.62
2018-01-23T09:13:36.362Z,82.53
2018-01-23T09:14:36.359Z,83.48
2018-01-23T09:15:36.361Z,82.34
2018-01-23T09:16:36.349Z,82.24
2018-01-23T09:17:36.341Z,82.34
2018-01-23T09:18:36.346Z,82.09
2018-01-23T09:19:36.342Z,82.48
2018-01-23T09:20:36.341Z,82.48
2018-01-23T09:21:36.334Z,81.71
2018-01-23T09:22:36.337Z,82.28
2018-01-23T09:23:36.329Z,81.90
2018-01-23T09:24:36.344Z,82.09
2018-01-23T09:25:36.323Z,81.24
2018-01-23T09:26:36.324Z,81.52
2018-01-23T09:27:36.326Z,81.24
2018-01-23T09:28:36.312Z,81.24
2018-01-23T09:29:36.312Z,81.33
2018-01-23T09:30:36.305Z,81.71
2018-01-23T09:31:36.449Z,81.14
2018-01-23T09:32:36.298Z,81.24
2018-01-23T09:33:36.299Z,81.33
2018-01-23T09:34:36.291Z,80.76
2018-01-23T09:35:36.288Z,80.95
2018-01-23T09:36:36.286Z,80.86
2018-01-23T09:37:37.921Z,81.24
2018-01-23T09:38:36.280Z,81.24
2018-01-23T09:39:37.921Z,81.05
2018-01-23T09:40:36.273Z,81.05
2018-01-23T09:41:36.269Z,80.76
2018-01-23T09:42:36.268Z,80.86
2018-01-23T09:43:36.266Z,80.38
2018-01-23T09:44:36.260Z,80.76
2018-01-23T09:45:36.258Z,81.33
2018-01-23T09:46:36.253Z,81.24
2018-01-23T09:47:36.251Z,80.66
2018-01-23T09:48:37.922Z,80.76
2018-01-23T09:49:37.923Z,81.81
2018-01-23T09:50:36.241Z,81.81
2018-01-23T09:51:36.259Z,81.14
2018-01-23T09:52:36.237Z,80.86
2018-01-23T09:53:36.232Z,80.19
2018-01-23T09:54:36.229Z,79.81
2018-01-23T09:55:36.226Z,80.95
2018-01-23T09:56:36.260Z,80.71
2018-01-23T09:57:36.218Z,80.29
2018-01-23T09:58:36.216Z,80.13
2018-01-23T09:59:36.215Z,80.04
2018-01-23T10:00:36.227Z,80.42
2018-01-23T10:01:36.212Z,80.71
2018-01-23T10:02:36.204Z,80.71
2018-01-23T10:03:36.225Z,80.33
2018-01-23T10:04:36.199Z,80.52
2018-01-23T10:05:36.204Z,80.61
2018-01-23T10:06:36.195Z,80.23
2018-01-23T10:07:36.191Z,80.23
2018-01-23T10:08:36.188Z,79.75
2018-01-23T10:09:36.507Z,80.90
2018-01-23T10:10:36.183Z,80.61
2018-01-23T10:11:36.183Z,80.61
2018-01-23T10:12:36.188Z,81.66
2018-01-23T10:13:36.179Z,80.04
2018-01-23T10:14:36.190Z,80.23
2018-01-23T10:15:36.181Z,80.13
2018-01-23T10:16:36.165Z,79.47
2018-01-23T10:17:37.926Z,79.47
2018-01-23T10:18:37.926Z,79.38
2018-01-23T10:19:36.165Z,79.09
2018-01-23T10:20:36.161Z,79.38
2018-01-23T10:21:36.151Z,79.38
2018-01-23T10:22:36.149Z,79.19
2018-01-23T10:23:36.149Z,79.47
2018-01-23T10:24:36.144Z,79.33
2018-01-23T10:25:36.141Z,80.19
2018-01-23T10:26:36.140Z,80.66
2018-01-23T10:27:36.136Z,80.57
2018-01-23T10:28:36.135Z,80.66
2018-01-23T10:29:36.133Z,80.66
2018-01-23T10:30:36.125Z,80.95
2018-01-23T10:31:36.123Z,80.00
2018-01-23T10:32:36.121Z,79.91
2018-01-23T10:33:36.117Z,80.29
2018-01-23T10:34:36.120Z,79.91
2018-01-23T10:35:36.111Z,79.72
2018-01-23T10:36:36.118Z,79.81
2018-01-23T10:37:36.104Z,79.85
2018-01-23T10:38:36.101Z,79.66
2018-01-23T10:39:36.099Z,79.94
2018-01-23T10:40:36.920Z,79.57
2018-01-23T10:41:36.095Z,79.75
2018-01-23T10:42:36.098Z,79.94
2018-01-23T10:43:36.100Z,80.33
2018-01-23T10:44:36.098Z,79.57
2018-01-23T10:45:36.239Z,79.94
2018-01-23T10:46:36.219Z,79.66
2018-01-23T10:47:37.104Z,80.04
2018-01-23T10:48:36.072Z,79.38
2018-01-23T10:49:36.071Z,79.47
2018-01-23T10:50:36.070Z,79.14
2018-01-23T10:51:36.062Z,79.05
2018-01-23T10:52:36.063Z,79.81
2018-01-23T10:53:36.056Z,80.13
2018-01-23T10:54:36.053Z,79.47
2018-01-23T10:55:36.053Z,79.09
2018-01-23T10:56:36.053Z,79.28
2018-01-23T10:57:36.045Z,79.38
2018-01-23T10:58:36.044Z,79.38
2018-01-23T10:59:36.050Z,79.28
2018-01-23T11:00:36.037Z,79.38
2018-01-23T11:01:36.032Z,79.28
2018-01-23T11:02:36.032Z,79.09
2018-01-23T11:03:36.042Z,78.80
2018-01-23T11:04:36.023Z,78.99
2018-01-23T11:05:36.066Z,79.19
2018-01-23T11:06:36.036Z,79.38
2018-01-23T11:07:36.020Z,78.99
2018-01-23T11:08:36.016Z,79.09
2018-01-23T11:09:36.017Z,79.28
2018-01-23T11:10:36.017Z,79.19
2018-01-23T11:11:36.009Z,78.90
2018-01-23T11:12:36.001Z,79.09
2018-01-23T11:13:36.003Z,78.90
2018-01-23T11:14:35.992Z,78.80
2018-01-23T11:15:36.004Z,79.09
2018-01-23T11:16:35.989Z,79.19
2018-01-23T11:17:35.988Z,78.90
2018-01-23T11:18:35.998Z,78.96
2018-01-23T11:19:35.977Z,79.05
2018-01-23T11:20:36.006Z,79.33
2018-01-23T11:21:35.975Z,79.19
2018-01-23T11:22:35.970Z,79.38
2018-01-23T11:23:35.975Z,79.24
2018-01-23T11:24:35.962Z,79.38
2018-01-23T11:25:35.960Z,79.52
2018-01-23T11:26:35.957Z,79.28
2018-01-23T11:27:35.969Z,79.47
2018-01-23T11:28:35.948Z,78.86
2018-01-23T11:29:35.945Z,79.38
2018-01-23T11:30:35.953Z,79.28
2018-01-23T11:31:35.942Z,79.38
2018-01-23T11:32:35.940Z,79.19
2018-01-23T11:33:36.002Z,78.99
2018-01-23T11:34:35.930Z,78.80
2018-01-23T11:35:35.959Z,79.19
2018-01-23T11:36:35.926Z,79.38
2018-01-23T11:37:35.924Z,79.38
2018-01-23T11:38:35.918Z,79.47
2018-01-23T11:39:35.916Z,79.38
2018-01-23T11:40:35.914Z,79.19
2018-01-23T11:41:35.927Z,79.85
2018-01-23T11:42:35.909Z,79.47
2018-01-23T11:43:36.193Z,79.85
2018-01-23T11:44:35.973Z,79.19
2018-01-23T11:45:35.885Z,79.19
2018-01-23T11:46:35.893Z,79.47
2018-01-23T11:47:35.890Z,79.19
2018-01-23T11:48:35.892Z,79.19
2018-01-23T11:49:35.903Z,79.47
2018-01-23T11:50:35.899Z,79.47
2018-01-23T11:51:35.931Z,79.38
2018-01-23T11:52:35.877Z,79.28
2018-01-23T11:53:35.871Z,79.19
2018-01-23T11:54:35.983Z,78.80
2018-01-23T11:55:35.865Z,79.19
2018-01-23T11:56:35.863Z,79.09
2018-01-23T11:57:35.931Z,79.28
2018-01-23T11:58:35.856Z,79.28
2018-01-23T11:59:35.860Z,79.38
2018-01-23T12:00:35.851Z,79.09
2018-01-23T12:01:35.850Z,79.19
2018-01-23T12:02:35.845Z,79.19
2018-01-23T12:03:35.842Z,79.09
2018-01-23T12:04:35.838Z,78.99
2018-01-23T12:05:35.906Z,78.80
2018-01-23T12:06:35.924Z,78.90
2018-01-23T12:07:35.890Z,78.80
2018-01-23T12:08:35.818Z,79.09
2018-01-23T12:09:35.833Z,79.19
2018-01-23T12:10:35.836Z,79.28
2018-01-23T12:11:35.977Z,78.99
2018-01-23T12:12:36.205Z,78.90
2018-01-23T12:13:35.937Z,78.33
2018-01-23T12:14:35.813Z,78.99
2018-01-23T12:15:35.808Z,78.90
2018-01-23T12:16:35.811Z,78.42
2018-01-23T12:17:36.973Z,78.52
2018-01-23T12:18:36.025Z,78.42
2018-01-23T12:19:35.836Z,78.52
2018-01-23T12:20:35.957Z,78.42
2018-01-23T12:21:35.862Z,78.71
2018-01-23T12:22:35.828Z,78.52
2018-01-23T12:23:35.786Z,77.66
2018-01-23T12:24:35.883Z,78.04
2018-01-23T12:25:35.785Z,78.04
2018-01-23T12:26:35.780Z,78.14
2018-01-23T12:27:35.795Z,77.95
2018-01-23T12:28:35.786Z,78.42
2018-01-23T12:29:35.768Z,77.95
2018-01-23T12:30:35.962Z,77.85
2018-01-23T12:31:35.770Z,77.95
2018-01-23T12:32:35.771Z,77.76
2018-01-23T12:33:35.756Z,77.95
2018-01-23T12:34:35.754Z,77.85
2018-01-23T12:35:38.449Z,77.85
2018-01-23T12:36:35.760Z,77.66
2018-01-23T12:37:35.748Z,77.95
2018-01-23T12:38:35.761Z,78.52
2018-01-23T12:39:35.740Z,78.23
2018-01-23T12:40:35.739Z,79.19
2018-01-23T12:41:35.736Z,78.80
2018-01-23T12:42:35.774Z,78.61
2018-01-23T12:43:36.667Z,78.23
2018-01-23T12:44:35.723Z,78.52
2018-01-23T12:45:35.721Z,78.42
2018-01-23T12:46:35.736Z,78.42
2018-01-23T12:47:35.731Z,78.42
2018-01-23T12:48:35.811Z,78.80
2018-01-23T12:49:35.849Z,78.52
2018-01-23T12:50:35.859Z,78.52
2018-01-23T12:51:36.440Z,78.42
2018-01-23T12:52:35.938Z,78.33